Time;durP1;ratioP1;P1;durP2;ratioP2;P2;SDS_P1;SDS_P2;PMS_P1;PMS_P2;Temp;Humidity;BMP_temperature;BMP_pressure;BME280_temperature;BME280_humidity;BME280_pressure;Samples;Min_cycle;Max_cycle;Signal;HPM_P1;HPM_P2
2022/07/05 00:00:34;;;;;;;67.67;5.23;;;20.00;21.10;;;;;;5083825;28;20178;-87
2022/07/05 00:03:00;;;;;;;68.07;5.63;;;20.00;20.70;;;;;;5084253;28;20171;-87
2022/07/05 00:05:26;;;;;;;69.30;6.00;;;20.00;21.80;;;;;;5083915;28;20292;-86
2022/07/05 00:07:52;;;;;;;67.77;5.70;;;20.00;21.10;;;;;;5101734;28;20480;-87
2022/07/05 00:10:18;;;;;;;69.10;6.20;;;20.00;21.70;;;;;;5101542;28;20163;-86
2022/07/05 00:12:43;;;;;;;70.17;6.90;;;20.00;22.50;;;;;;5101972;28;20671;-86
2022/07/05 00:15:09;;;;;;;69.90;7.77;;;19.90;23.40;;;;;;5101775;28;20169;-87
2022/07/05 00:17:35;;;;;;;69.00;7.67;;;19.90;23.20;;;;;;5083840;28;20201;-87
2022/07/05 00:20:01;;;;;;;71.60;8.30;;;19.90;23.20;;;;;;5101408;28;20398;-87
2022/07/05 00:22:26;;;;;;;67.47;7.00;;;19.90;23.80;;;;;;5101292;28;20507;-86
2022/07/05 00:24:52;;;;;;;70.03;9.57;;;19.90;24.10;;;;;;5083142;28;20466;-86
2022/07/05 00:27:18;;;;;;;72.20;10.63;;;19.90;24.20;;;;;;5084059;28;20223;-86
2022/07/05 00:29:46;;;;;;;70.00;11.63;;;19.80;24.20;;;;;;5084080;28;20190;-86
2022/07/05 00:32:12;;;;;;;88.90;15.20;;;19.80;24.90;;;;;;5102316;28;20172;-85
2022/07/05 00:34:38;;;;;;;71.50;12.87;;;19.80;25.90;;;;;;5102777;28;20417;-87
2022/07/05 00:37:04;;;;;;;76.87;19.30;;;19.70;27.20;;;;;;5102215;28;20667;-87
2022/07/05 00:39:29;;;;;;;72.97;14.57;;;19.70;26.60;;;;;;5102010;28;20165;-85
2022/07/05 00:41:55;;;;;;;73.17;14.00;;;19.70;28.20;;;;;;5102111;28;20161;-87
2022/07/05 00:44:35;;;;;;;70.60;13.47;;;19.70;27.80;;;;;;5084358;28;20198;-87
2022/07/05 00:47:06;;;;;;;71.00;14.77;;;19.70;28.60;;;;;;5102108;28;20186;-86
2022/07/05 00:49:33;;;;;;;72.03;17.50;;;19.70;28.00;;;;;;5102020;28;20378;-87
2022/07/05 00:51:59;;;;;;;71.67;17.13;;;19.70;27.80;;;;;;5102508;28;20395;-87
2022/07/05 00:54:30;;;;;;;71.27;13.97;;;19.70;27.80;;;;;;5084084;28;20409;-87
2022/07/05 00:56:56;;;;;;;70.67;15.57;;;19.70;28.90;;;;;;5102229;28;20419;-87
2022/07/05 00:59:22;;;;;;;71.00;17.00;;;19.70;28.30;;;;;;5102778;28;20400;-87
2022/07/05 01:01:48;;;;;;;70.80;14.90;;;19.60;29.10;;;;;;5082653;28;20398;-87
2022/07/05 01:04:14;;;;;;;72.20;15.40;;;19.50;31.20;;;;;;5101116;28;20500;-87
2022/07/05 01:06:46;;;;;;;71.80;17.30;;;19.50;31.20;;;;;;5082493;28;20167;-87
2022/07/05 01:09:13;;;;;;;80.40;19.10;;;19.40;31.40;;;;;;5101197;28;20186;-87
2022/07/05 01:11:40;;;;;;;71.93;18.00;;;19.40;31.40;;;;;;5100684;28;20914;-87
2022/07/05 01:14:10;;;;;;;72.33;15.53;;;19.40;32.40;;;;;;5083225;28;20404;-87
2022/07/05 01:16:38;;;;;;;73.17;15.50;;;19.40;32.30;;;;;;5082728;28;20393;-86
2022/07/05 01:19:08;;;;;;;72.27;16.30;;;19.40;32.40;;;;;;5083085;28;20396;-87
2022/07/05 01:21:54;;;;;;;71.00;15.70;;;19.40;32.70;;;;;;5100913;28;20385;-85
2022/07/05 01:24:21;;;;;;;71.00;14.50;;;19.30;33.00;;;;;;5100437;28;20422;-86
2022/07/05 01:26:49;;;;;;;71.53;16.73;;;19.30;33.90;;;;;;5100716;28;20415;-87
2022/07/05 01:29:15;;;;;;;70.00;13.53;;;19.30;33.60;;;;;;5100713;28;20468;-87
2022/07/05 01:31:41;;;;;;;70.47;12.93;;;19.30;33.90;;;;;;5087185;28;20409;-86
2022/07/05 01:34:08;;;;;;;74.83;15.93;;;19.30;33.50;;;;;;5086649;28;20474;-86
2022/07/05 01:36:35;;;;;;;69.90;13.40;;;19.30;34.20;;;;;;5104475;28;20422;-86
2022/07/05 01:39:06;;;;;;;73.47;12.53;;;19.20;35.50;;;;;;5087436;28;20438;-86
2022/07/05 01:41:32;;;;;;;69.73;11.13;;;19.20;37.30;;;;;;5105621;28;20390;-87
2022/07/05 01:43:59;;;;;;;72.80;11.10;;;19.10;38.50;;;;;;5105061;28;20414;-87
2022/07/05 01:46:28;;;;;;;68.20;9.80;;;19.10;40.40;;;;;;5105295;28;20419;-86
2022/07/05 01:48:58;;;;;;;69.17;10.43;;;19.00;40.00;;;;;;5105360;28;20437;-86
2022/07/05 01:51:33;;;;;;;71.60;10.17;;;19.00;41.20;;;;;;5105661;28;20396;-87
2022/07/05 01:53:58;;;;;;;69.60;9.27;;;19.00;41.30;;;;;;5105896;28;20394;-86
2022/07/05 01:56:24;;;;;;;68.97;9.50;;;19.00;41.20;;;;;;5106060;28;20416;-86
2022/07/05 01:58:51;;;;;;;68.47;9.80;;;19.00;41.20;;;;;;5106172;28;20201;-86
2022/07/05 02:01:35;;;;;;;68.50;10.17;;;18.90;41.70;;;;;;5105994;28;20168;-87
2022/07/05 02:04:01;;;;;;;67.73;9.03;;;18.90;42.50;;;;;;5106260;28;20395;-87
2022/07/05 02:06:27;;;;;;;72.57;8.77;;;18.90;43.20;;;;;;5105937;28;20405;-87
2022/07/05 02:08:53;;;;;;;68.77;10.70;;;18.90;42.30;;;;;;5087685;28;20451;-86
2022/07/05 02:11:19;;;;;;;69.20;9.03;;;18.90;41.10;;;;;;5105397;28;20170;-87
2022/07/05 02:13:44;;;;;;;69.63;9.63;;;18.90;42.00;;;;;;5106154;28;20331;-86
2022/07/05 02:16:10;;;;;;;71.43;9.43;;;18.80;41.80;;;;;;5087283;28;20476;-86
2022/07/05 02:18:36;;;;;;;67.70;7.10;;;18.80;41.60;;;;;;5087041;28;20191;-86
2022/07/05 02:21:02;;;;;;;68.90;8.53;;;18.80;42.20;;;;;;5105490;28;20169;-85
2022/07/05 02:23:27;;;;;;;69.50;8.37;;;18.80;41.90;;;;;;5105519;28;20164;-86
2022/07/05 02:25:53;;;;;;;69.27;8.43;;;18.80;42.10;;;;;;5105944;28;20414;-86
2022/07/05 02:28:19;;;;;;;70.70;9.67;;;18.80;41.00;;;;;;5170338;22;20218;-85
2022/07/05 02:30:45;;;;;;;70.53;9.93;;;18.80;41.20;;;;;;5096202;28;20669;-86
2022/07/05 02:33:13;;;;;;;68.17;9.50;;;18.70;41.60;;;;;;5078153;28;20189;-86
2022/07/05 02:35:39;;;;;;;69.80;9.40;;;18.70;41.30;;;;;;5078212;28;20520;-85
2022/07/05 02:38:05;;;;;;;71.73;10.37;;;18.70;41.10;;;;;;5096717;28;20770;-86
2022/07/05 02:40:31;;;;;;;69.70;8.43;;;18.70;41.20;;;;;;5096528;28;20169;-85
2022/07/05 02:42:57;;;;;;;66.70;7.17;;;18.60;41.80;;;;;;5095077;28;20183;-85
2022/07/05 02:45:23;;;;;;;67.60;7.30;;;18.60;42.90;;;;;;5077691;28;20946;-85
2022/07/05 02:47:49;;;;;;;68.47;8.20;;;18.60;41.80;;;;;;5095932;28;20449;-86
2022/07/05 02:50:15;;;;;;;67.80;8.33;;;18.60;42.20;;;;;;5095822;28;20421;-86
2022/07/05 02:52:41;;;;;;;69.00;7.50;;;18.60;42.50;;;;;;5095829;28;20402;-86
2022/07/05 02:55:09;;;;;;;66.70;6.30;;;18.60;43.10;;;;;;5095738;28;20174;-86
2022/07/05 02:57:38;;;;;;;67.40;6.13;;;18.60;45.00;;;;;;5095604;28;20184;-86
2022/07/05 03:00:05;;;;;;;67.23;5.53;;;18.60;45.20;;;;;;5095612;28;20406;-86
2022/07/05 03:02:33;;;;;;;70.00;7.23;;;18.60;46.40;;;;;;5095536;28;20768;-86
2022/07/05 03:04:59;;;;;;;67.83;5.43;;;18.60;46.00;;;;;;5095755;28;20410;-86
2022/07/05 03:07:25;;;;;;;71.10;5.87;;;18.60;47.60;;;;;;5095857;28;20936;-86
2022/07/05 03:09:50;;;;;;;66.20;5.07;;;18.50;47.20;;;;;;5077283;28;20168;-86
2022/07/05 03:12:16;;;;;;;66.47;5.20;;;18.60;47.60;;;;;;5077301;28;20205;-86
2022/07/05 03:14:42;;;;;;;67.50;5.00;;;18.50;47.80;;;;;;5095353;28;20191;-86
2022/07/05 03:17:08;;;;;;;67.33;4.80;;;18.50;48.10;;;;;;5095247;28;20190;-86
2022/07/05 03:19:33;;;;;;;69.73;6.57;;;18.50;48.30;;;;;;5095242;28;20167;-86
2022/07/05 03:21:59;;;;;;;70.10;5.77;;;18.50;49.00;;;;;;5095209;28;20172;-86
2022/07/05 03:24:25;;;;;;;67.20;5.47;;;18.50;49.80;;;;;;5095146;28;20183;-86
2022/07/05 03:26:50;;;;;;;69.93;5.10;;;18.50;49.20;;;;;;5095019;28;20645;-86
2022/07/05 03:29:16;;;;;;;69.83;5.00;;;18.50;50.20;;;;;;5094939;28;20226;-86
2022/07/05 03:31:42;;;;;;;68.67;5.70;;;18.50;51.10;;;;;;5095053;28;20159;-86
2022/07/05 03:34:07;;;;;;;67.37;5.63;;;18.50;51.50;;;;;;5076867;28;20170;-86
2022/07/05 03:36:33;;;;;;;66.83;5.33;;;18.50;51.10;;;;;;5095943;28;20221;-85
2022/07/05 03:38:59;;;;;;;68.50;7.77;;;18.50;51.50;;;;;;5097545;28;20198;-86
2022/07/05 03:44:01;;;;;;;69.70;5.20;;;18.40;52.40;;;;;;5176485;22;20227;-86
2022/07/05 03:46:27;;;;;;;65.80;4.93;;;18.40;52.00;;;;;;5094913;28;20401;-86
2022/07/05 03:48:53;;;;;;;67.37;5.23;;;18.50;50.90;;;;;;5094971;28;20223;-86
2022/07/05 03:51:18;;;;;;;68.37;5.10;;;18.40;52.30;;;;;;5095226;28;20246;-86
2022/07/05 03:53:44;;;;;;;70.40;5.20;;;18.50;52.30;;;;;;5095204;28;20633;-86
2022/07/05 03:56:10;;;;;;;67.47;5.50;;;18.50;52.30;;;;;;5077122;28;20522;-86
2022/07/05 03:58:35;;;;;;;69.27;5.00;;;18.50;53.90;;;;;;5094841;28;20270;-86
2022/07/05 04:01:01;;;;;;;67.00;5.20;;;18.50;53.00;;;;;;5095061;28;20164;-86
2022/07/05 04:03:27;;;;;;;69.63;6.50;;;18.50;53.50;;;;;;5095178;28;20653;-86
2022/07/05 04:05:53;;;;;;;66.90;5.63;;;18.40;54.10;;;;;;5095099;28;20246;-86
2022/07/05 04:08:18;;;;;;;67.67;7.87;;;18.50;54.50;;;;;;5094859;28;20265;-86
2022/07/05 04:10:44;;;;;;;69.67;7.50;;;18.50;56.30;;;;;;5076490;28;20171;-86
2022/07/05 04:13:10;;;;;;;70.97;6.53;;;18.50;57.40;;;;;;5095028;28;20160;-86
2022/07/05 04:15:35;;;;;;;67.80;7.10;;;18.50;57.40;;;;;;5076644;28;20191;-86
2022/07/05 04:18:04;;;;;;;70.13;9.20;;;18.50;59.90;;;;;;5076917;28;20229;-86
2022/07/05 04:20:31;;;;;;;71.33;12.73;;;18.40;60.50;;;;;;5095032;28;20198;-86
2022/07/05 04:22:57;;;;;;;75.30;12.43;;;18.30;63.80;;;;;;5094759;28;20408;-86
2022/07/05 04:25:22;;;;;;;70.53;15.97;;;18.30;64.00;;;;;;5095426;28;20884;-86
2022/07/05 04:27:53;;;;;;;71.00;18.70;;;18.30;64.40;;;;;;5094532;28;20191;-86
2022/07/05 04:30:20;;;;;;;73.97;17.30;;;18.40;64.70;;;;;;5076292;28;20171;-86
2022/07/05 04:32:47;;;;;;;73.27;17.27;;;18.40;66.00;;;;;;5076300;28;20435;-86
2022/07/05 04:35:13;;;;;;;73.80;19.47;;;18.50;66.50;;;;;;5094309;28;20922;-86
2022/07/05 04:37:39;;;;;;;72.80;18.30;;;18.50;65.30;;;;;;5077093;28;20837;-86
2022/07/05 04:40:07;;;;;;;73.67;15.50;;;18.70;67.80;;;;;;5094447;28;20892;-86
2022/07/05 04:42:32;;;;;;;70.67;10.17;;;18.90;72.80;;;;;;5076214;28;20455;-86
2022/07/05 04:44:58;;;;;;;70.80;6.67;;;19.20;70.50;;;;;;5094713;28;20779;-86
2022/07/05 04:47:27;;;;;;;68.50;5.87;;;19.50;62.40;;;;;;5094403;28;20187;-86
2022/07/05 04:49:53;;;;;;;72.43;6.73;;;19.70;53.40;;;;;;5094310;28;20415;-86
2022/07/05 04:52:19;;;;;;;68.30;5.80;;;19.70;48.30;;;;;;5093873;28;20397;-86
2022/07/05 04:54:45;;;;;;;72.10;6.60;;;19.70;52.10;;;;;;5093864;28;20769;-86
2022/07/05 04:57:11;;;;;;;70.10;5.77;;;19.70;54.40;;;;;;5094338;28;20436;-86
2022/07/05 04:59:36;;;;;;;72.43;5.00;;;19.90;54.30;;;;;;5093974;28;20155;-86
2022/07/05 05:02:03;;;;;;;70.90;5.73;;;19.90;50.70;;;;;;5094607;28;20166;-87
2022/07/05 05:04:28;;;;;;;72.10;5.20;;;19.90;47.70;;;;;;5093744;28;20187;-86
2022/07/05 05:06:54;;;;;;;73.23;6.70;;;19.80;49.80;;;;;;5093590;28;20464;-86
2022/07/05 05:09:20;;;;;;;67.47;4.50;;;19.80;52.10;;;;;;5093562;28;20275;-86
2022/07/05 05:11:46;;;;;;;70.80;5.70;;;19.90;49.10;;;;;;5094007;28;20287;-86
2022/07/05 05:14:12;;;;;;;68.87;5.50;;;20.00;48.20;;;;;;5094659;28;20430;-86
2022/07/05 05:16:38;;;;;;;69.57;5.70;;;20.00;46.90;;;;;;5094265;28;20832;-86
2022/07/05 05:19:04;;;;;;;66.30;4.87;;;19.90;48.90;;;;;;5094027;28;20228;-86
2022/07/05 05:21:29;;;;;;;67.90;5.13;;;19.90;48.40;;;;;;5075952;28;20163;-86
2022/07/05 05:23:55;;;;;;;69.33;5.57;;;19.90;49.80;;;;;;5095014;28;20169;-86
2022/07/05 05:26:21;;;;;;;67.47;4.97;;;19.90;44.30;;;;;;5076615;28;20165;-86
2022/07/05 05:28:47;;;;;;;66.90;5.07;;;19.90;46.60;;;;;;5094042;28;20424;-86
2022/07/05 05:31:12;;;;;;;67.97;5.33;;;20.00;43.60;;;;;;5094672;28;20628;-86
2022/07/05 05:33:38;;;;;;;68.33;4.37;;;20.00;41.70;;;;;;5096017;28;20516;-87
2022/07/05 05:36:04;;;;;;;67.37;5.13;;;19.90;43.10;;;;;;5096559;28;20512;-86
2022/07/05 05:38:30;;;;;;;67.13;5.63;;;19.90;42.20;;;;;;5095370;28;20191;-86
2022/07/05 05:40:55;;;;;;;67.27;5.40;;;19.90;37.50;;;;;;5094533;28;20401;-86
2022/07/05 05:43:21;;;;;;;68.50;6.43;;;19.80;36.40;;;;;;5076355;28;20646;-86
2022/07/05 05:45:47;;;;;;;68.33;5.30;;;19.80;37.50;;;;;;5094621;28;20248;-86
2022/07/05 05:48:13;;;;;;;68.07;6.17;;;19.80;37.20;;;;;;5075797;28;20717;-87
2022/07/05 05:50:39;;;;;;;67.70;5.60;;;19.70;37.80;;;;;;5094026;28;20174;-87
2022/07/05 05:53:05;;;;;;;69.83;6.07;;;19.60;39.90;;;;;;5093838;28;20186;-86
2022/07/05 05:55:31;;;;;;;66.27;4.97;;;19.60;39.90;;;;;;5093548;28;20398;-86
2022/07/05 05:58:10;;;;;;;66.07;4.83;;;19.60;38.10;;;;;;5076540;28;20446;-86
2022/07/05 06:00:36;;;;;;;66.70;5.30;;;19.60;39.90;;;;;;5095692;28;20388;-86
2022/07/05 06:03:01;;;;;;;68.47;5.77;;;19.70;38.60;;;;;;5077054;28;20403;-87
2022/07/05 06:05:27;;;;;;;67.50;4.70;;;19.60;40.00;;;;;;5094555;28;20166;-86
2022/07/05 06:07:54;;;;;;;68.17;5.40;;;19.40;41.70;;;;;;5076585;28;20279;-86
2022/07/05 06:10:29;;;;;;;70.30;4.87;;;19.50;43.30;;;;;;5094821;28;20164;-86
2022/07/05 06:12:58;;;;;;;68.17;5.53;;;19.50;42.40;;;;;;5095032;28;20428;-87
2022/07/05 06:15:24;;;;;;;66.27;5.00;;;19.50;41.80;;;;;;5094159;28;20397;-87
2022/07/05 06:17:50;;;;;;;69.97;5.70;;;19.50;37.70;;;;;;5094937;28;20441;-87
2022/07/05 06:20:18;;;;;;;67.47;5.10;;;19.50;40.00;;;;;;5096578;28;20402;-86
2022/07/05 06:22:44;;;;;;;69.17;4.73;;;19.50;42.60;;;;;;5096982;28;20401;-86
2022/07/05 06:25:10;;;;;;;66.27;5.47;;;19.60;39.50;;;;;;5096838;28;20400;-87
2022/07/05 06:27:44;;;;;;;67.17;5.03;;;19.60;37.20;;;;;;5096846;28;20421;-87
2022/07/05 06:30:12;;;;;;;68.40;5.30;;;19.60;39.40;;;;;;5097707;28;20764;-86
2022/07/05 06:32:38;;;;;;;67.00;5.30;;;19.70;36.30;;;;;;5078637;28;20474;-87
2022/07/05 06:35:04;;;;;;;69.77;6.33;;;19.70;35.00;;;;;;5079474;28;20412;-87
2022/07/05 06:37:57;;;;;;;68.70;5.30;;;19.60;34.50;;;;;;5097527;28;20227;-88
2022/07/05 06:40:37;;;;;;;69.33;5.30;;;19.50;37.10;;;;;;5097854;28;20444;-88
2022/07/05 06:43:05;;;;;;;66.40;5.17;;;19.60;35.80;;;;;;5097693;28;20517;-88
2022/07/05 06:45:31;;;;;;;68.73;5.27;;;19.60;38.40;;;;;;5097505;28;20389;-87
2022/07/05 06:48:02;;;;;;;68.77;5.00;;;19.70;40.30;;;;;;5097263;28;20419;-87
2022/07/05 06:50:31;;;;;;;70.37;4.93;;;19.70;35.10;;;;;;5079747;28;20417;-87
2022/07/05 06:52:57;;;;;;;66.50;5.23;;;19.70;34.60;;;;;;5097616;28;20740;-87
2022/07/05 06:55:27;;;;;;;66.87;5.30;;;19.70;35.00;;;;;;5097181;28;20862;-87
2022/07/05 06:58:06;;;;;;;67.27;4.33;;;19.70;35.40;;;;;;5096569;28;20449;-86
2022/07/05 07:00:32;;;;;;;66.50;4.90;;;19.80;36.50;;;;;;5078035;28;20445;-87
2022/07/05 07:02:58;;;;;;;69.70;5.70;;;19.80;34.00;;;;;;5096754;28;20860;-87
2022/07/05 07:05:24;;;;;;;68.17;5.13;;;19.90;31.50;;;;;;5096226;28;20635;-87
2022/07/05 07:10:43;;;;;;;67.70;6.00;;;19.90;28.30;;;;;;5095986;28;20395;-87
2022/07/05 07:13:09;;;;;;;70.63;8.60;;;20.00;28.80;;;;;;5095986;28;20391;-87
2022/07/05 07:15:34;;;;;;;69.80;10.20;;;20.00;23.80;;;;;;5095921;28;20459;-88
2022/07/05 07:18:01;;;;;;;69.97;10.90;;;20.00;21.40;;;;;;5095349;28;20192;-87
2022/07/05 07:20:27;;;;;;;68.90;9.00;;;19.90;22.30;;;;;;5077476;28;20151;-87
2022/07/05 07:22:53;;;;;;;72.93;12.90;;;20.00;24.20;;;;;;5096065;28;20389;-87
2022/07/05 07:25:23;;;;;;;69.17;11.73;;;20.00;20.50;;;;;;5095857;28;20400;-87
2022/07/05 07:27:50;;;;;;;70.30;11.63;;;20.00;21.20;;;;;;5095101;28;20489;-87
2022/07/05 07:30:21;;;;;;;70.70;13.27;;;20.10;18.80;;;;;;5095446;28;20726;-87
2022/07/05 07:32:48;;;;;;;70.23;10.67;;;20.20;16.80;;;;;;5095252;28;20382;-87
2022/07/05 07:35:14;;;;;;;69.43;10.10;;;20.20;14.90;;;;;;5095096;28;20408;-87
2022/07/05 07:37:40;;;;;;;68.70;9.03;;;20.30;14.20;;;;;;5095023;28;20530;-87
2022/07/05 07:40:07;;;;;;;76.17;10.27;;;20.30;12.50;;;;;;5094960;28;20406;-87
2022/07/05 07:42:33;;;;;;;69.30;10.93;;;20.30;10.90;;;;;;5060239;28;20421;-87
2022/07/05 07:45:03;;;;;;;71.57;11.93;;;20.40;12.40;;;;;;5076903;28;20430;-87
2022/07/05 07:47:35;;;;;;;73.33;11.30;;;20.50;12.20;;;;;;5077003;28;20433;-87
2022/07/05 07:50:03;;;;;;;68.87;11.67;;;20.40;11.30;;;;;;5095005;28;20383;-87
2022/07/05 07:52:33;;;;;;;69.40;10.97;;;20.40;11.50;;;;;;5094636;28;20490;-87
2022/07/05 07:54:59;;;;;;;69.77;10.40;;;20.50;10.80;;;;;;5094894;28;20377;-87
2022/07/05 07:57:25;;;;;;;71.30;6.33;;;20.60;10.40;;;;;;5094720;28;20838;-87
2022/07/05 07:59:51;;;;;;;68.70;9.80;;;20.60;6.70;;;;;;5094782;28;20415;-87
2022/07/05 08:02:20;;;;;;;68.37;7.40;;;20.70;9.00;;;;;;5094508;28;20207;-87
2022/07/05 08:04:46;;;;;;;68.57;6.17;;;20.60;5.70;;;;;;5094660;28;20170;-87
2022/07/05 08:07:12;;;;;;;68.03;7.27;;;20.70;6.60;;;;;;5094578;28;20465;-88
2022/07/05 08:09:38;;;;;;;68.07;5.87;;;20.80;6.80;;;;;;5095373;28;20419;-87
2022/07/05 08:12:05;;;;;;;67.77;4.93;;;20.90;4.00;;;;;;5095080;28;20168;-88
2022/07/05 08:14:31;;;;;;;67.47;4.53;;;20.90;2.90;;;;;;5096305;28;20572;-88
2022/07/05 08:16:58;;;;;;;70.27;5.00;;;20.90;1.00;;;;;;5094928;28;20418;-88
2022/07/05 08:22:08;;;;;;;69.03;5.47;;;20.80;1.00;;;;;;5094092;28;20389;-87
2022/07/05 08:24:46;;;;;;;68.27;6.13;;;20.70;1.60;;;;;;5094328;28;20388;-90
2022/07/05 08:27:36;;;;;;;67.57;4.90;;;20.70;1.80;;;;;;5094345;28;20462;-91
2022/07/05 08:30:02;;;;;;;71.27;3.93;;;20.80;1.50;;;;;;5146053;22;20494;-84
2022/07/05 08:32:28;;;;;;;67.13;3.53;;;20.80;1.00;;;;;;5078891;28;20418;-84
2022/07/05 08:34:53;;;;;;;68.63;3.77;;;20.90;1.00;;;;;;5078441;28;20532;-84
2022/07/05 08:37:19;;;;;;;67.07;3.50;;;21.00;1.00;;;;;;5078351;28;20184;-85
2022/07/05 08:39:45;;;;;;;66.90;3.60;;;21.10;1.00;;;;;;5078945;28;20168;-85
2022/07/05 08:42:11;;;;;;;65.97;3.20;;;21.10;1.00;;;;;;5079805;28;20398;-85
2022/07/05 08:44:39;;;;;;;76.83;3.97;;;21.10;1.00;;;;;;5078718;28;20493;-85
2022/07/05 08:47:08;;;;;;;67.40;3.60;;;21.10;1.00;;;;;;5078692;28;20428;-84
2022/07/05 08:49:37;;;;;;;68.10;3.60;;;21.20;1.00;;;;;;5080017;28;20420;-85
2022/07/05 08:52:06;;;;;;;71.93;4.10;;;21.10;1.00;;;;;;5079559;28;20482;-84
2022/07/05 08:54:32;;;;;;;68.47;3.50;;;21.20;1.00;;;;;;5077631;28;20808;-85
2022/07/05 08:56:58;;;;;;;70.20;4.00;;;21.30;1.00;;;;;;5079952;28;20423;-85
2022/07/05 08:59:25;;;;;;;71.67;4.43;;;21.50;1.00;;;;;;5079342;28;20820;-84
2022/07/05 09:01:53;;;;;;;68.77;3.80;;;21.50;1.00;;;;;;5079171;28;20434;-84
2022/07/05 09:04:21;;;;;;;67.27;4.00;;;21.50;1.00;;;;;;5079979;28;20178;-86
2022/07/05 09:06:48;;;;;;;68.27;4.50;;;21.40;1.00;;;;;;5079367;28;20429;-85
2022/07/05 09:09:18;;;;;;;69.10;4.33;;;21.30;1.00;;;;;;5078458;28;20437;-85
2022/07/05 09:11:46;;;;;;;67.97;4.07;;;21.30;1.00;;;;;;5078207;28;20407;-85
2022/07/05 09:14:21;;;;;;;68.33;4.87;;;21.20;1.00;;;;;;5077928;28;20897;-85
2022/07/05 09:16:47;;;;;;;66.80;3.77;;;21.30;1.00;;;;;;5078321;28;20429;-84
2022/07/05 09:19:14;;;;;;;67.27;4.00;;;21.50;1.00;;;;;;5079811;28;20986;-85
2022/07/05 09:21:40;;;;;;;69.33;5.27;;;21.70;1.00;;;;;;5078196;28;20417;-85
2022/07/05 09:24:08;;;;;;;68.17;4.07;;;22.00;1.00;;;;;;5079361;28;20424;-85
2022/07/05 09:26:48;;;;;;;66.67;3.63;;;22.00;1.00;;;;;;5078744;28;20164;-85
2022/07/05 09:29:19;;;;;;;68.20;4.00;;;21.90;1.00;;;;;;5076539;28;20463;-85
2022/07/05 09:31:48;;;;;;;67.27;4.20;;;21.90;1.00;;;;;;5076134;28;20497;-84
2022/07/05 09:34:19;;;;;;;67.70;3.07;;;22.10;1.00;;;;;;5076275;28;20826;-84
2022/07/05 09:36:56;;;;;;;67.47;2.67;;;22.40;1.00;;;;;;5076216;28;20422;-84
2022/07/05 09:39:36;;;;;;;67.20;3.30;;;22.70;1.00;;;;;;5076773;28;20506;-83
2022/07/05 09:42:18;;;;;;;66.83;3.47;;;22.90;1.00;;;;;;5076117;28;20811;-85
2022/07/05 09:44:49;;;;;;;67.57;3.73;;;23.10;1.00;;;;;;5076390;28;20569;-83
2022/07/05 09:47:17;;;;;;;67.23;3.20;;;23.30;1.00;;;;;;5075848;28;20513;-85
2022/07/05 09:50:03;;;;;;;66.80;3.23;;;23.30;1.00;;;;;;5076279;28;20424;-84
2022/07/05 09:52:33;;;;;;;66.83;3.63;;;23.50;1.00;;;;;;5080079;28;20393;-84
2022/07/05 09:55:10;;;;;;;68.00;4.63;;;23.40;1.00;;;;;;5079321;28;20406;-84
2022/07/05 09:57:40;;;;;;;68.30;4.53;;;23.40;1.00;;;;;;5081332;28;20790;-84
2022/07/05 10:00:15;;;;;;;66.97;4.90;;;23.30;1.00;;;;;;5080112;28;20434;-84
2022/07/05 10:02:43;;;;;;;68.77;5.20;;;23.30;1.00;;;;;;5082655;28;20924;-84
2022/07/05 10:05:16;;;;;;;67.70;5.90;;;23.40;1.00;;;;;;5082701;28;20402;-84
2022/07/05 10:07:53;;;;;;;68.77;5.93;;;23.70;1.00;;;;;;5082403;28;20432;-85
2022/07/05 10:10:24;;;;;;;67.77;5.70;;;23.90;1.00;;;;;;5081610;28;20788;-85
2022/07/05 10:12:51;;;;;;;69.63;5.73;;;24.00;1.00;;;;;;5082769;28;20391;-84
2022/07/05 10:15:20;;;;;;;69.43;5.50;;;23.80;1.00;;;;;;5080946;28;20414;-84
2022/07/05 10:18:11;;;;;;;67.10;5.40;;;23.60;1.00;;;;;;5080601;28;20458;-84
2022/07/05 10:20:37;;;;;;;68.53;6.07;;;23.50;1.00;;;;;;5081585;28;20471;-84
2022/07/05 10:23:14;;;;;;;69.40;5.70;;;23.70;1.00;;;;;;5080872;28;20426;-85
2022/07/05 10:25:42;;;;;;;69.60;5.97;;;24.10;1.00;;;;;;5081138;28;20164;-84
2022/07/05 10:28:09;;;;;;;67.37;6.90;;;24.40;1.00;;;;;;5080973;28;20428;-84
2022/07/05 10:30:35;;;;;;;66.17;3.47;;;24.70;1.00;;;;;;5082415;28;20833;-85
2022/07/05 10:33:03;;;;;;;66.50;3.77;;;24.60;1.00;;;;;;5080971;28;20493;-84
2022/07/05 10:35:29;;;;;;;67.17;3.37;;;24.30;1.00;;;;;;5080358;28;20419;-84
2022/07/05 10:37:59;;;;;;;65.87;3.40;;;24.00;1.00;;;;;;5080796;28;20460;-84
2022/07/05 10:40:26;;;;;;;67.63;4.17;;;23.80;1.00;;;;;;5080564;28;20406;-84
2022/07/05 10:42:56;;;;;;;68.70;4.40;;;23.70;1.00;;;;;;5079047;28;20461;-84
2022/07/05 10:45:34;;;;;;;67.67;4.43;;;23.80;1.00;;;;;;5081226;28;20403;-84
2022/07/05 10:48:22;;;;;;;66.97;3.10;;;24.30;1.00;;;;;;5081856;28;20426;-85
2022/07/05 10:51:00;;;;;;;66.97;3.53;;;24.80;1.00;;;;;;5077263;28;20414;-84
2022/07/05 10:53:49;;;;;;;66.30;2.40;;;25.30;1.00;;;;;;5076981;28;20912;-84
2022/07/05 10:56:15;;;;;;;69.80;2.53;;;25.80;1.00;;;;;;5077041;28;20483;-83
2022/07/05 10:58:40;;;;;;;67.37;2.53;;;26.00;1.00;;;;;;5077624;28;20491;-83
2022/07/05 11:01:15;;;;;;;68.50;2.77;;;26.00;1.00;;;;;;5079121;28;20197;-83
2022/07/05 11:03:45;;;;;;;66.20;2.43;;;25.70;1.00;;;;;;5076028;28;20166;-83
2022/07/05 11:06:26;;;;;;;66.13;2.53;;;25.40;1.00;;;;;;5077197;28;20417;-84
2022/07/05 11:09:05;;;;;;;67.47;2.40;;;25.30;1.00;;;;;;5076618;28;20408;-83
2022/07/05 11:11:43;;;;;;;66.50;2.53;;;25.00;1.00;;;;;;5077011;28;20989;-82
2022/07/05 11:14:29;;;;;;;66.10;2.50;;;24.90;1.00;;;;;;5078231;28;20401;-83
2022/07/05 11:17:19;;;;;;;68.83;2.40;;;24.70;1.00;;;;;;5078407;28;20429;-84
2022/07/05 11:20:00;;;;;;;67.97;3.03;;;24.50;1.00;;;;;;5076173;28;20439;-82
2022/07/05 11:22:26;;;;;;;65.87;2.40;;;24.10;1.00;;;;;;5077344;28;20410;-82
2022/07/05 11:24:52;;;;;;;96.10;3.37;;;24.20;1.00;;;;;;5077464;28;20444;-82
2022/07/05 11:27:18;;;;;;;66.63;2.57;;;24.20;1.00;;;;;;5077038;28;20418;-83
2022/07/05 11:29:51;;;;;;;66.30;2.40;;;24.30;1.00;;;;;;5076105;28;20436;-85
2022/07/05 11:32:22;;;;;;;67.00;2.23;;;24.80;1.00;;;;;;5077909;28;20624;-84
2022/07/05 11:34:55;;;;;;;68.70;2.80;;;25.30;1.00;;;;;;5084656;28;20379;-86
2022/07/05 11:37:34;;;;;;;66.67;2.90;;;25.80;1.00;;;;;;5081277;28;20469;-86
2022/07/05 11:40:11;;;;;;;68.00;2.90;;;25.90;1.00;;;;;;5080817;28;20443;-84
2022/07/05 11:42:48;;;;;;;68.07;2.23;;;25.50;1.00;;;;;;5079599;28;20407;-84
2022/07/05 11:45:15;;;;;;;66.03;2.67;;;25.00;1.00;;;;;;5079966;28;20397;-84
2022/07/05 11:47:41;;;;;;;66.70;2.67;;;24.60;1.00;;;;;;5080579;28;20533;-84
2022/07/05 11:50:08;;;;;;;65.67;2.20;;;24.40;1.00;;;;;;5081143;28;20405;-84
2022/07/05 11:52:38;;;;;;;65.77;2.40;;;24.40;1.00;;;;;;5080493;28;20402;-84
2022/07/05 11:55:08;;;;;;;66.53;2.53;;;24.50;1.00;;;;;;5080310;28;20399;-86
2022/07/05 11:57:34;;;;;;;67.27;2.93;;;24.40;1.00;;;;;;5080969;28;20466;-84
2022/07/05 12:00:04;;;;;;;66.20;2.60;;;24.70;1.00;;;;;;5080292;28;20403;-84
2022/07/05 12:02:30;;;;;;;68.83;2.27;;;25.40;1.00;;;;;;5078856;28;20502;-86
2022/07/05 12:04:57;;;;;;;65.73;2.90;;;25.80;1.00;;;;;;5077772;28;20477;-87
2022/07/05 12:07:34;;;;;;;66.37;3.23;;;26.00;1.00;;;;;;5078846;28;20590;-85
2022/07/05 12:12:47;;;;;;;66.73;2.97;;;25.90;1.00;;;;;;5079910;28;20867;-84
2022/07/05 12:15:19;;;;;;;67.80;2.70;;;25.80;1.00;;;;;;5078722;28;20474;-85
2022/07/05 12:17:49;;;;;;;67.17;3.10;;;25.60;1.00;;;;;;5079340;28;20506;-84
2022/07/05 12:20:22;;;;;;;66.97;2.87;;;25.40;1.00;;;;;;5079991;28;20386;-84
2022/07/05 12:22:49;;;;;;;67.00;2.70;;;25.60;1.00;;;;;;5079468;28;20464;-86
2022/07/05 12:25:21;;;;;;;67.10;3.17;;;25.60;1.00;;;;;;5079810;28;20437;-85
2022/07/05 12:27:49;;;;;;;66.40;2.80;;;25.90;1.00;;;;;;5079470;28;20436;-86
2022/07/05 12:30:15;;;;;;;65.97;2.20;;;26.30;1.00;;;;;;5079585;28;20820;-84
2022/07/05 12:33:05;;;;;;;69.23;2.50;;;26.60;1.00;;;;;;5077349;28;20414;-85
2022/07/05 12:35:45;;;;;;;65.77;2.20;;;26.80;1.00;;;;;;5076087;28;20410;-85
2022/07/05 12:38:16;;;;;;;69.63;2.90;;;27.20;1.00;;;;;;5076235;28;20454;-83
2022/07/05 12:40:58;;;;;;;66.57;2.30;;;27.50;1.00;;;;;;5077440;28;20386;-83
2022/07/05 12:43:23;;;;;;;67.70;2.20;;;27.80;1.00;;;;;;5075275;28;20467;-84
2022/07/05 12:46:03;;;;;;;66.57;2.20;;;27.80;1.00;;;;;;5075014;28;20414;-83
2022/07/05 12:48:39;;;;;;;70.17;2.43;;;27.90;1.00;;;;;;5075594;28;20241;-85
2022/07/05 12:51:09;;;;;;;67.27;2.50;;;28.00;1.00;;;;;;5077379;28;20409;-83
2022/07/05 12:59:12;;;;;;;69.53;2.60;;;27.40;1.00;;;;;;5077269;28;20457;-84
2022/07/05 13:01:45;;;;;;;70.10;2.30;;;27.10;1.00;;;;;;5075089;28;20414;-84